sensor_id;sensor_type;location;lat;lon;timestamp;P1;durP1;ratioP1;P2;durP2;ratioP2
38591;SDS011;24356;48.460;11.450;2023-03-01T00:01:02;33.67;;;15.00;;
38591;SDS011;24356;48.460;11.450;2023-03-01T00:03:30;30.45;;;14.18;;
38591;SDS011;24356;48.460;11.450;2023-03-01T00:05:55;30.73;;;13.93;;
38591;SDS011;24356;48.460;11.450;2023-03-01T00:08:21;29.05;;;15.20;;
38591;SDS011;24356;48.460;11.450;2023-03-01T00:10:46;29.13;;;13.63;;
38591;SDS011;24356;48.460;11.450;2023-03-01T00:13:12;30.30;;;15.25;;
38591;SDS011;24356;48.460;11.450;2023-03-01T00:15:38;28.50;;;14.68;;
38591;SDS011;24356;48.460;11.450;2023-03-01T00:18:05;28.40;;;14.23;;
38591;SDS011;24356;48.460;11.450;2023-03-01T00:20:31;28.52;;;14.18;;
38591;SDS011;24356;48.460;11.450;2023-03-01T00:22:56;31.63;;;14.45;;
38591;SDS011;24356;48.460;11.450;2023-03-01T00:25:22;29.27;;;14.30;;
38591;SDS011;24356;48.460;11.450;2023-03-01T00:27:47;31.27;;;14.40;;
38591;SDS011;24356;48.460;11.450;2023-03-01T00:30:15;27.38;;;13.57;;
38591;SDS011;24356;48.460;11.450;2023-03-01T00:32:41;30.08;;;14.48;;
38591;SDS011;24356;48.460;11.450;2023-03-01T00:35:06;28.35;;;14.00;;
38591;SDS011;24356;48.460;11.450;2023-03-01T00:37:35;28.27;;;13.55;;
38591;SDS011;24356;48.460;11.450;2023-03-01T00:40:00;27.23;;;13.32;;
38591;SDS011;24356;48.460;11.450;2023-03-01T00:42:26;30.92;;;13.63;;
38591;SDS011;24356;48.460;11.450;2023-03-01T00:44:51;29.33;;;14.73;;
38591;SDS011;24356;48.460;11.450;2023-03-01T00:47:17;22.98;;;12.57;;
38591;SDS011;24356;48.460;11.450;2023-03-01T00:49:42;25.88;;;13.63;;
38591;SDS011;24356;48.460;11.450;2023-03-01T00:52:08;26.48;;;13.55;;
38591;SDS011;24356;48.460;11.450;2023-03-01T00:54:33;27.27;;;13.52;;
38591;SDS011;24356;48.460;11.450;2023-03-01T00:56:59;29.15;;;14.05;;
38591;SDS011;24356;48.460;11.450;2023-03-01T00:59:24;31.33;;;14.95;;
38591;SDS011;24356;48.460;11.450;2023-03-01T01:01:50;30.70;;;13.70;;
38591;SDS011;24356;48.460;11.450;2023-03-01T01:04:16;32.35;;;13.90;;
38591;SDS011;24356;48.460;11.450;2023-03-01T01:06:42;28.08;;;13.10;;
38591;SDS011;24356;48.460;11.450;2023-03-01T01:09:10;28.80;;;14.13;;
38591;SDS011;24356;48.460;11.450;2023-03-01T01:11:48;27.30;;;13.98;;
38591;SDS011;24356;48.460;11.450;2023-03-01T01:14:15;30.33;;;14.40;;
38591;SDS011;24356;48.460;11.450;2023-03-01T01:16:41;28.17;;;14.20;;
38591;SDS011;24356;48.460;11.450;2023-03-01T01:19:07;31.38;;;14.43;;
38591;SDS011;24356;48.460;11.450;2023-03-01T01:21:33;28.85;;;13.88;;
38591;SDS011;24356;48.460;11.450;2023-03-01T01:23:59;26.73;;;13.43;;
38591;SDS011;24356;48.460;11.450;2023-03-01T01:26:26;32.17;;;14.75;;
38591;SDS011;24356;48.460;11.450;2023-03-01T01:28:53;28.35;;;14.30;;
38591;SDS011;24356;48.460;11.450;2023-03-01T01:31:19;32.25;;;14.85;;
38591;SDS011;24356;48.460;11.450;2023-03-01T01:33:48;30.75;;;14.15;;
38591;SDS011;24356;48.460;11.450;2023-03-01T01:36:14;28.35;;;14.25;;
38591;SDS011;24356;48.460;11.450;2023-03-01T01:38:40;31.13;;;14.63;;
38591;SDS011;24356;48.460;11.450;2023-03-01T01:41:07;29.00;;;14.23;;
38591;SDS011;24356;48.460;11.450;2023-03-01T01:43:37;29.60;;;13.80;;
38591;SDS011;24356;48.460;11.450;2023-03-01T01:48:46;33.90;;;14.80;;
38591;SDS011;24356;48.460;11.450;2023-03-01T01:51:18;26.27;;;13.48;;
38591;SDS011;24356;48.460;11.450;2023-03-01T01:53:48;25.75;;;13.38;;
38591;SDS011;24356;48.460;11.450;2023-03-01T01:56:19;26.58;;;13.02;;
38591;SDS011;24356;48.460;11.450;2023-03-01T01:58:46;25.80;;;13.35;;
38591;SDS011;24356;48.460;11.450;2023-03-01T02:01:12;30.92;;;13.48;;
38591;SDS011;24356;48.460;11.450;2023-03-01T02:03:39;30.30;;;14.73;;
38591;SDS011;24356;48.460;11.450;2023-03-01T02:08:53;28.38;;;13.82;;
38591;SDS011;24356;48.460;11.450;2023-03-01T02:11:22;28.05;;;13.50;;
38591;SDS011;24356;48.460;11.450;2023-03-01T02:13:48;27.23;;;13.57;;
38591;SDS011;24356;48.460;11.450;2023-03-01T02:16:15;28.10;;;13.63;;
38591;SDS011;24356;48.460;11.450;2023-03-01T02:18:41;31.13;;;14.55;;
38591;SDS011;24356;48.460;11.450;2023-03-01T02:23:53;29.20;;;14.25;;
38591;SDS011;24356;48.460;11.450;2023-03-01T02:26:22;29.52;;;13.73;;
38591;SDS011;24356;48.460;11.450;2023-03-01T02:29:02;28.88;;;13.80;;
38591;SDS011;24356;48.460;11.450;2023-03-01T02:31:28;26.35;;;13.98;;
38591;SDS011;24356;48.460;11.450;2023-03-01T02:34:10;30.92;;;14.32;;
38591;SDS011;24356;48.460;11.450;2023-03-01T02:36:39;33.60;;;14.80;;
38591;SDS011;24356;48.460;11.450;2023-03-01T02:39:09;32.53;;;15.77;;
38591;SDS011;24356;48.460;11.450;2023-03-01T02:41:45;31.23;;;14.82;;
38591;SDS011;24356;48.460;11.450;2023-03-01T02:44:14;31.77;;;15.20;;
38591;SDS011;24356;48.460;11.450;2023-03-01T02:46:58;32.53;;;15.45;;
38591;SDS011;24356;48.460;11.450;2023-03-01T02:49:28;29.23;;;13.32;;
38591;SDS011;24356;48.460;11.450;2023-03-01T02:57:33;31.35;;;13.85;;
38591;SDS011;24356;48.460;11.450;2023-03-01T03:00:03;31.23;;;13.75;;
38591;SDS011;24356;48.460;11.450;2023-03-01T03:02:44;32.80;;;14.68;;
38591;SDS011;24356;48.460;11.450;2023-03-01T03:05:15;31.88;;;14.45;;
38591;SDS011;24356;48.460;11.450;2023-03-01T03:07:44;28.40;;;14.23;;
38591;SDS011;24356;48.460;11.450;2023-03-01T03:10:14;31.10;;;14.63;;
38591;SDS011;24356;48.460;11.450;2023-03-01T03:15:13;29.23;;;13.95;;
38591;SDS011;24356;48.460;11.450;2023-03-01T03:17:40;33.60;;;14.20;;
38591;SDS011;24356;48.460;11.450;2023-03-01T03:20:07;32.00;;;14.93;;
38591;SDS011;24356;48.460;11.450;2023-03-01T03:22:36;31.55;;;15.52;;
38591;SDS011;24356;48.460;11.450;2023-03-01T03:25:04;30.20;;;14.73;;
38591;SDS011;24356;48.460;11.450;2023-03-01T03:27:30;32.22;;;14.48;;
38591;SDS011;24356;48.460;11.450;2023-03-01T03:29:56;30.85;;;15.25;;
38591;SDS011;24356;48.460;11.450;2023-03-01T03:32:22;32.80;;;14.90;;
38591;SDS011;24356;48.460;11.450;2023-03-01T03:34:48;28.83;;;15.05;;
38591;SDS011;24356;48.460;11.450;2023-03-01T03:37:14;31.23;;;14.38;;
38591;SDS011;24356;48.460;11.450;2023-03-01T03:39:59;27.45;;;14.25;;
38591;SDS011;24356;48.460;11.450;2023-03-01T03:42:25;33.05;;;15.45;;
38591;SDS011;24356;48.460;11.450;2023-03-01T03:44:50;31.30;;;15.27;;
38591;SDS011;24356;48.460;11.450;2023-03-01T03:47:16;39.20;;;15.25;;
38591;SDS011;24356;48.460;11.450;2023-03-01T03:49:42;34.05;;;15.70;;
38591;SDS011;24356;48.460;11.450;2023-03-01T03:52:07;31.77;;;15.32;;
38591;SDS011;24356;48.460;11.450;2023-03-01T03:54:38;32.08;;;15.48;;
38591;SDS011;24356;48.460;11.450;2023-03-01T03:57:05;30.25;;;14.70;;
38591;SDS011;24356;48.460;11.450;2023-03-01T03:59:31;30.10;;;14.30;;
38591;SDS011;24356;48.460;11.450;2023-03-01T04:01:56;30.23;;;14.63;;
38591;SDS011;24356;48.460;11.450;2023-03-01T04:04:22;31.52;;;14.10;;
38591;SDS011;24356;48.460;11.450;2023-03-01T04:06:47;32.88;;;15.32;;
38591;SDS011;24356;48.460;11.450;2023-03-01T04:09:13;30.17;;;14.77;;
38591;SDS011;24356;48.460;11.450;2023-03-01T04:11:39;31.17;;;14.20;;
38591;SDS011;24356;48.460;11.450;2023-03-01T04:14:04;35.40;;;14.65;;
38591;SDS011;24356;48.460;11.450;2023-03-01T04:16:30;30.73;;;14.13;;
38591;SDS011;24356;48.460;11.450;2023-03-01T04:18:55;34.42;;;15.13;;
38591;SDS011;24356;48.460;11.450;2023-03-01T04:21:24;34.47;;;15.00;;
38591;SDS011;24356;48.460;11.450;2023-03-01T04:23:50;32.80;;;15.88;;
38591;SDS011;24356;48.460;11.450;2023-03-01T04:26:17;33.38;;;15.23;;
38591;SDS011;24356;48.460;11.450;2023-03-01T04:28:44;35.55;;;15.27;;
38591;SDS011;24356;48.460;11.450;2023-03-01T04:31:14;37.35;;;14.75;;
38591;SDS011;24356;48.460;11.450;2023-03-01T04:33:44;32.03;;;15.10;;
38591;SDS011;24356;48.460;11.450;2023-03-01T04:36:12;33.05;;;15.13;;
38591;SDS011;24356;48.460;11.450;2023-03-01T04:38:39;31.30;;;14.75;;
38591;SDS011;24356;48.460;11.450;2023-03-01T04:41:05;36.10;;;15.10;;
38591;SDS011;24356;48.460;11.450;2023-03-01T04:43:33;34.38;;;15.35;;
38591;SDS011;24356;48.460;11.450;2023-03-01T04:46:06;32.33;;;14.85;;
38591;SDS011;24356;48.460;11.450;2023-03-01T04:48:34;36.83;;;15.30;;
38591;SDS011;24356;48.460;11.450;2023-03-01T04:51:01;31.42;;;14.75;;
38591;SDS011;24356;48.460;11.450;2023-03-01T04:53:27;33.30;;;15.30;;
38591;SDS011;24356;48.460;11.450;2023-03-01T04:55:54;36.90;;;14.85;;
38591;SDS011;24356;48.460;11.450;2023-03-01T04:58:24;30.20;;;13.60;;
38591;SDS011;24356;48.460;11.450;2023-03-01T05:00:51;33.38;;;15.32;;
38591;SDS011;24356;48.460;11.450;2023-03-01T05:03:18;30.17;;;14.23;;
38591;SDS011;24356;48.460;11.450;2023-03-01T05:05:45;33.08;;;14.98;;
38591;SDS011;24356;48.460;11.450;2023-03-01T05:08:12;36.47;;;15.00;;
38591;SDS011;24356;48.460;11.450;2023-03-01T05:10:46;34.90;;;14.98;;
38591;SDS011;24356;48.460;11.450;2023-03-01T05:13:15;35.95;;;14.23;;
38591;SDS011;24356;48.460;11.450;2023-03-01T05:15:46;29.15;;;14.40;;
38591;SDS011;24356;48.460;11.450;2023-03-01T05:18:13;35.38;;;15.05;;
38591;SDS011;24356;48.460;11.450;2023-03-01T05:20:39;33.88;;;15.23;;
38591;SDS011;24356;48.460;11.450;2023-03-01T05:23:04;30.70;;;15.02;;
38591;SDS011;24356;48.460;11.450;2023-03-01T05:25:31;32.63;;;14.55;;
38591;SDS011;24356;48.460;11.450;2023-03-01T05:28:02;33.17;;;15.45;;
38591;SDS011;24356;48.460;11.450;2023-03-01T05:30:29;33.58;;;14.88;;
38591;SDS011;24356;48.460;11.450;2023-03-01T05:32:56;31.75;;;14.77;;
38591;SDS011;24356;48.460;11.450;2023-03-01T05:35:21;36.38;;;15.57;;
38591;SDS011;24356;48.460;11.450;2023-03-01T05:37:48;35.92;;;16.02;;
38591;SDS011;24356;48.460;11.450;2023-03-01T05:40:15;34.15;;;15.02;;
38591;SDS011;24356;48.460;11.450;2023-03-01T05:42:44;37.38;;;15.85;;
38591;SDS011;24356;48.460;11.450;2023-03-01T05:45:12;33.00;;;14.88;;
38591;SDS011;24356;48.460;11.450;2023-03-01T05:47:38;35.85;;;16.13;;
38591;SDS011;24356;48.460;11.450;2023-03-01T05:50:08;34.72;;;15.25;;
38591;SDS011;24356;48.460;11.450;2023-03-01T05:52:49;35.20;;;16.23;;
38591;SDS011;24356;48.460;11.450;2023-03-01T05:55:26;34.33;;;14.98;;
38591;SDS011;24356;48.460;11.450;2023-03-01T05:57:52;36.70;;;15.50;;
38591;SDS011;24356;48.460;11.450;2023-03-01T06:00:19;33.20;;;15.27;;
38591;SDS011;24356;48.460;11.450;2023-03-01T06:02:47;35.85;;;15.27;;
38591;SDS011;24356;48.460;11.450;2023-03-01T06:05:13;33.25;;;14.98;;
38591;SDS011;24356;48.460;11.450;2023-03-01T06:07:40;34.17;;;16.33;;
38591;SDS011;24356;48.460;11.450;2023-03-01T06:10:06;37.47;;;15.82;;
38591;SDS011;24356;48.460;11.450;2023-03-01T06:12:33;35.42;;;15.15;;
38591;SDS011;24356;48.460;11.450;2023-03-01T06:15:01;38.20;;;15.88;;
38591;SDS011;24356;48.460;11.450;2023-03-01T06:17:30;36.30;;;15.02;;
38591;SDS011;24356;48.460;11.450;2023-03-01T06:19:57;35.50;;;14.98;;
38591;SDS011;24356;48.460;11.450;2023-03-01T06:22:23;34.47;;;15.40;;
38591;SDS011;24356;48.460;11.450;2023-03-01T06:24:49;32.72;;;14.65;;
38591;SDS011;24356;48.460;11.450;2023-03-01T06:27:15;40.03;;;15.07;;
38591;SDS011;24356;48.460;11.450;2023-03-01T06:29:40;34.83;;;15.60;;
38591;SDS011;24356;48.460;11.450;2023-03-01T06:32:06;40.75;;;16.55;;
38591;SDS011;24356;48.460;11.450;2023-03-01T06:34:33;35.75;;;15.85;;
38591;SDS011;24356;48.460;11.450;2023-03-01T06:36:58;36.80;;;15.10;;
38591;SDS011;24356;48.460;11.450;2023-03-01T06:39:24;34.15;;;16.23;;
38591;SDS011;24356;48.460;11.450;2023-03-01T06:41:49;38.15;;;16.95;;
38591;SDS011;24356;48.460;11.450;2023-03-01T06:44:15;34.50;;;15.23;;
38591;SDS011;24356;48.460;11.450;2023-03-01T06:46:40;39.78;;;15.40;;
38591;SDS011;24356;48.460;11.450;2023-03-01T06:49:06;40.10;;;17.15;;
38591;SDS011;24356;48.460;11.450;2023-03-01T06:51:34;36.55;;;15.60;;
38591;SDS011;24356;48.460;11.450;2023-03-01T06:54:03;37.17;;;15.90;;
38591;SDS011;24356;48.460;11.450;2023-03-01T06:56:30;39.63;;;17.25;;
38591;SDS011;24356;48.460;11.450;2023-03-01T06:58:56;34.95;;;16.35;;
38591;SDS011;24356;48.460;11.450;2023-03-01T07:01:22;38.67;;;17.00;;
38591;SDS011;24356;48.460;11.450;2023-03-01T07:03:47;31.83;;;15.65;;
38591;SDS011;24356;48.460;11.450;2023-03-01T07:06:13;33.55;;;15.35;;
38591;SDS011;24356;48.460;11.450;2023-03-01T07:08:38;34.40;;;15.75;;
38591;SDS011;24356;48.460;11.450;2023-03-01T07:11:04;37.13;;;15.73;;
38591;SDS011;24356;48.460;11.450;2023-03-01T07:13:30;34.45;;;16.25;;
38591;SDS011;24356;48.460;11.450;2023-03-01T07:15:56;32.30;;;15.45;;
38591;SDS011;24356;48.460;11.450;2023-03-01T07:18:22;36.97;;;16.45;;
38591;SDS011;24356;48.460;11.450;2023-03-01T07:20:47;34.40;;;15.52;;
38591;SDS011;24356;48.460;11.450;2023-03-01T07:23:13;31.02;;;15.00;;
38591;SDS011;24356;48.460;11.450;2023-03-01T07:25:38;35.45;;;14.70;;
38591;SDS011;24356;48.460;11.450;2023-03-01T07:28:04;34.70;;;15.98;;
38591;SDS011;24356;48.460;11.450;2023-03-01T07:30:29;38.63;;;17.13;;
38591;SDS011;24356;48.460;11.450;2023-03-01T07:32:56;37.90;;;15.93;;
38591;SDS011;24356;48.460;11.450;2023-03-01T07:35:23;31.55;;;15.52;;
38591;SDS011;24356;48.460;11.450;2023-03-01T07:37:50;33.95;;;16.20;;
38591;SDS011;24356;48.460;11.450;2023-03-01T07:40:15;36.00;;;15.80;;
38591;SDS011;24356;48.460;11.450;2023-03-01T07:42:41;29.98;;;15.32;;
38591;SDS011;24356;48.460;11.450;2023-03-01T07:45:07;33.13;;;15.82;;
38591;SDS011;24356;48.460;11.450;2023-03-01T07:47:32;29.88;;;15.15;;
38591;SDS011;24356;48.460;11.450;2023-03-01T07:49:58;31.33;;;15.07;;
38591;SDS011;24356;48.460;11.450;2023-03-01T07:52:24;29.45;;;15.30;;
38591;SDS011;24356;48.460;11.450;2023-03-01T07:54:49;31.85;;;15.63;;
38591;SDS011;24356;48.460;11.450;2023-03-01T07:57:15;30.13;;;15.07;;
38591;SDS011;24356;48.460;11.450;2023-03-01T07:59:40;31.52;;;16.00;;
38591;SDS011;24356;48.460;11.450;2023-03-01T08:02:06;28.35;;;14.43;;
38591;SDS011;24356;48.460;11.450;2023-03-01T08:04:33;30.10;;;14.55;;
38591;SDS011;24356;48.460;11.450;2023-03-01T08:06:58;28.23;;;15.05;;
38591;SDS011;24356;48.460;11.450;2023-03-01T08:09:24;28.33;;;14.93;;
38591;SDS011;24356;48.460;11.450;2023-03-01T08:11:49;30.77;;;15.07;;
38591;SDS011;24356;48.460;11.450;2023-03-01T08:14:15;31.15;;;15.40;;
38591;SDS011;24356;48.460;11.450;2023-03-01T08:16:41;32.22;;;15.55;;
38591;SDS011;24356;48.460;11.450;2023-03-01T08:19:07;29.02;;;15.48;;
38591;SDS011;24356;48.460;11.450;2023-03-01T08:21:34;31.13;;;14.93;;
38591;SDS011;24356;48.460;11.450;2023-03-01T08:24:04;28.10;;;15.43;;
38591;SDS011;24356;48.460;11.450;2023-03-01T08:26:31;30.25;;;15.40;;
38591;SDS011;24356;48.460;11.450;2023-03-01T08:28:57;31.02;;;15.48;;
38591;SDS011;24356;48.460;11.450;2023-03-01T08:31:25;32.20;;;14.80;;
38591;SDS011;24356;48.460;11.450;2023-03-01T08:33:54;29.85;;;15.00;;
38591;SDS011;24356;48.460;11.450;2023-03-01T08:36:26;27.20;;;14.98;;
38591;SDS011;24356;48.460;11.450;2023-03-01T08:38:54;29.20;;;14.65;;
38591;SDS011;24356;48.460;11.450;2023-03-01T08:41:20;29.17;;;15.32;;
38591;SDS011;24356;48.460;11.450;2023-03-01T08:43:46;31.67;;;15.45;;
38591;SDS011;24356;48.460;11.450;2023-03-01T08:46:11;27.45;;;14.65;;
38591;SDS011;24356;48.460;11.450;2023-03-01T08:48:37;28.73;;;15.60;;
38591;SDS011;24356;48.460;11.450;2023-03-01T08:51:11;27.15;;;14.23;;
38591;SDS011;24356;48.460;11.450;2023-03-01T08:53:41;29.45;;;15.57;;
38591;SDS011;24356;48.460;11.450;2023-03-01T08:56:07;28.10;;;14.85;;
38591;SDS011;24356;48.460;11.450;2023-03-01T08:58:34;29.73;;;14.98;;
38591;SDS011;24356;48.460;11.450;2023-03-01T09:01:00;29.63;;;14.48;;
38591;SDS011;24356;48.460;11.450;2023-03-01T09:03:26;28.02;;;15.38;;
38591;SDS011;24356;48.460;11.450;2023-03-01T09:05:52;28.10;;;14.85;;
38591;SDS011;24356;48.460;11.450;2023-03-01T09:08:18;25.92;;;14.52;;
38591;SDS011;24356;48.460;11.450;2023-03-01T09:10:44;25.27;;;14.80;;
38591;SDS011;24356;48.460;11.450;2023-03-01T09:13:10;27.17;;;14.70;;
38591;SDS011;24356;48.460;11.450;2023-03-01T09:15:36;26.88;;;14.55;;
38591;SDS011;24356;48.460;11.450;2023-03-01T09:18:02;28.42;;;14.80;;
38591;SDS011;24356;48.460;11.450;2023-03-01T09:20:30;26.73;;;15.05;;
38591;SDS011;24356;48.460;11.450;2023-03-01T09:22:56;27.98;;;14.75;;
38591;SDS011;24356;48.460;11.450;2023-03-01T09:25:22;27.88;;;14.63;;
38591;SDS011;24356;48.460;11.450;2023-03-01T09:27:50;27.15;;;15.02;;
38591;SDS011;24356;48.460;11.450;2023-03-01T09:30:16;25.95;;;14.63;;
38591;SDS011;24356;48.460;11.450;2023-03-01T09:32:42;27.40;;;14.80;;
38591;SDS011;24356;48.460;11.450;2023-03-01T09:35:09;23.75;;;14.65;;
38591;SDS011;24356;48.460;11.450;2023-03-01T09:37:35;27.15;;;14.55;;
38591;SDS011;24356;48.460;11.450;2023-03-01T09:40:02;25.17;;;14.73;;
38591;SDS011;24356;48.460;11.450;2023-03-01T09:42:31;28.55;;;15.68;;
38591;SDS011;24356;48.460;11.450;2023-03-01T09:45:05;27.88;;;15.07;;
38591;SDS011;24356;48.460;11.450;2023-03-01T09:47:36;28.42;;;15.35;;
38591;SDS011;24356;48.460;11.450;2023-03-01T09:55:15;22.30;;;13.45;;
38591;SDS011;24356;48.460;11.450;2023-03-01T09:57:52;23.73;;;13.90;;
38591;SDS011;24356;48.460;11.450;2023-03-01T10:00:42;26.10;;;14.55;;
38591;SDS011;24356;48.460;11.450;2023-03-01T10:03:26;23.38;;;13.60;;
38591;SDS011;24356;48.460;11.450;2023-03-01T10:08:56;24.63;;;14.15;;
38591;SDS011;24356;48.460;11.450;2023-03-01T10:11:41;22.35;;;13.65;;
38591;SDS011;24356;48.460;11.450;2023-03-01T10:14:25;23.23;;;13.75;;
38591;SDS011;24356;48.460;11.450;2023-03-01T10:19:52;23.33;;;13.50;;
38591;SDS011;24356;48.460;11.450;2023-03-01T10:22:20;22.35;;;13.65;;
38591;SDS011;24356;48.460;11.450;2023-03-01T10:24:48;23.83;;;14.55;;
38591;SDS011;24356;48.460;11.450;2023-03-01T10:27:25;26.13;;;14.50;;
38591;SDS011;24356;48.460;11.450;2023-03-01T10:32:42;28.42;;;14.02;;
38591;SDS011;24356;48.460;11.450;2023-03-01T10:35:16;25.52;;;13.63;;
38591;SDS011;24356;48.460;11.450;2023-03-01T10:38:30;25.00;;;13.93;;
38591;SDS011;24356;48.460;11.450;2023-03-01T10:40:52;26.60;;;14.90;;
38591;SDS011;24356;48.460;11.450;2023-03-01T10:43:27;22.45;;;13.15;;
38591;SDS011;24356;48.460;11.450;2023-03-01T10:45:57;25.20;;;15.48;;
38591;SDS011;24356;48.460;11.450;2023-03-01T10:48:26;28.08;;;15.27;;
38591;SDS011;24356;48.460;11.450;2023-03-01T10:58:38;21.75;;;12.95;;
38591;SDS011;24356;48.460;11.450;2023-03-01T11:01:23;23.80;;;13.45;;
38591;SDS011;24356;48.460;11.450;2023-03-01T11:04:09;24.35;;;13.73;;
38591;SDS011;24356;48.460;11.450;2023-03-01T11:06:38;21.83;;;13.77;;
38591;SDS011;24356;48.460;11.450;2023-03-01T11:09:18;23.17;;;13.15;;
38591;SDS011;24356;48.460;11.450;2023-03-01T11:11:52;23.95;;;12.52;;
38591;SDS011;24356;48.460;11.450;2023-03-01T11:14:30;22.05;;;12.98;;
38591;SDS011;24356;48.460;11.450;2023-03-01T11:17:04;21.05;;;13.07;;
38591;SDS011;24356;48.460;11.450;2023-03-01T11:20:05;21.23;;;13.27;;
38591;SDS011;24356;48.460;11.450;2023-03-01T11:22:37;24.70;;;12.65;;
38591;SDS011;24356;48.460;11.450;2023-03-01T11:25:14;22.17;;;13.25;;
38591;SDS011;24356;48.460;11.450;2023-03-01T11:27:41;21.63;;;13.05;;
38591;SDS011;24356;48.460;11.450;2023-03-01T11:35:20;23.27;;;12.93;;
38591;SDS011;24356;48.460;11.450;2023-03-01T11:37:59;21.52;;;13.32;;
38591;SDS011;24356;48.460;11.450;2023-03-01T11:40:35;22.13;;;13.63;;
38591;SDS011;24356;48.460;11.450;2023-03-01T11:43:14;24.88;;;13.70;;
38591;SDS011;24356;48.460;11.450;2023-03-01T11:51:21;22.90;;;12.80;;
38591;SDS011;24356;48.460;11.450;2023-03-01T11:54:26;23.00;;;12.60;;
38591;SDS011;24356;48.460;11.450;2023-03-01T11:57:20;23.52;;;12.52;;
38591;SDS011;24356;48.460;11.450;2023-03-01T12:05:45;20.80;;;11.93;;
38591;SDS011;24356;48.460;11.450;2023-03-01T12:22:17;24.10;;;12.07;;
38591;SDS011;24356;48.460;11.450;2023-03-01T12:24:33;18.92;;;11.20;;
38591;SDS011;24356;48.460;11.450;2023-03-01T12:37:55;20.27;;;12.13;;
38591;SDS011;24356;48.460;11.450;2023-03-01T12:40:42;22.13;;;13.00;;
38591;SDS011;24356;48.460;11.450;2023-03-01T12:43:22;22.90;;;12.15;;
38591;SDS011;24356;48.460;11.450;2023-03-01T12:49:02;21.80;;;12.93;;
38591;SDS011;24356;48.460;11.450;2023-03-01T12:51:36;21.23;;;12.05;;
38591;SDS011;24356;48.460;11.450;2023-03-01T12:54:10;22.35;;;12.13;;
38591;SDS011;24356;48.460;11.450;2023-03-01T12:56:45;19.98;;;11.82;;
38591;SDS011;24356;48.460;11.450;2023-03-01T13:02:02;22.02;;;12.52;;
38591;SDS011;24356;48.460;11.450;2023-03-01T13:15:36;19.48;;;12.23;;
38591;SDS011;24356;48.460;11.450;2023-03-01T13:23:12;21.40;;;11.77;;
38591;SDS011;24356;48.460;11.450;2023-03-01T13:39:04;21.58;;;12.38;;
38591;SDS011;24356;48.460;11.450;2023-03-01T13:41:52;22.10;;;12.57;;
38591;SDS011;24356;48.460;11.450;2023-03-01T13:46:56;18.27;;;11.35;;
38591;SDS011;24356;48.460;11.450;2023-03-01T13:55:13;18.42;;;11.18;;
38591;SDS011;24356;48.460;11.450;2023-03-01T13:57:55;19.48;;;11.52;;
38591;SDS011;24356;48.460;11.450;2023-03-01T14:00:37;18.48;;;11.20;;
38591;SDS011;24356;48.460;11.450;2023-03-01T14:05:36;20.67;;;11.18;;
38591;SDS011;24356;48.460;11.450;2023-03-01T14:08:13;21.42;;;11.18;;
38591;SDS011;24356;48.460;11.450;2023-03-01T14:10:47;21.98;;;11.90;;
38591;SDS011;24356;48.460;11.450;2023-03-01T14:13:20;16.70;;;10.48;;
38591;SDS011;24356;48.460;11.450;2023-03-01T14:19:12;17.42;;;10.48;;
38591;SDS011;24356;48.460;11.450;2023-03-01T14:21:45;18.05;;;10.93;;
38591;SDS011;24356;48.460;11.450;2023-03-01T14:24:18;20.23;;;11.70;;
38591;SDS011;24356;48.460;11.450;2023-03-01T14:26:46;21.73;;;11.40;;
38591;SDS011;24356;48.460;11.450;2023-03-01T14:32:12;22.67;;;11.32;;
38591;SDS011;24356;48.460;11.450;2023-03-01T14:34:44;14.95;;;10.43;;
38591;SDS011;24356;48.460;11.450;2023-03-01T14:40:00;17.67;;;10.38;;
38591;SDS011;24356;48.460;11.450;2023-03-01T14:42:34;21.02;;;11.32;;
38591;SDS011;24356;48.460;11.450;2023-03-01T14:45:00;20.77;;;11.10;;
38591;SDS011;24356;48.460;11.450;2023-03-01T14:47:31;22.95;;;11.02;;
38591;SDS011;24356;48.460;11.450;2023-03-01T14:50:03;19.33;;;11.07;;
38591;SDS011;24356;48.460;11.450;2023-03-01T14:53:00;19.30;;;11.35;;
38591;SDS011;24356;48.460;11.450;2023-03-01T14:55:38;17.77;;;11.15;;
38591;SDS011;24356;48.460;11.450;2023-03-01T14:58:11;18.25;;;10.52;;
38591;SDS011;24356;48.460;11.450;2023-03-01T15:00:38;16.75;;;10.68;;
38591;SDS011;24356;48.460;11.450;2023-03-01T15:03:23;16.08;;;10.35;;
38591;SDS011;24356;48.460;11.450;2023-03-01T15:06:03;18.67;;;11.18;;
38591;SDS011;24356;48.460;11.450;2023-03-01T15:08:30;16.50;;;10.50;;
38591;SDS011;24356;48.460;11.450;2023-03-01T15:13:45;23.30;;;11.77;;
38591;SDS011;24356;48.460;11.450;2023-03-01T15:18:45;21.70;;;11.68;;
38591;SDS011;24356;48.460;11.450;2023-03-01T15:21:17;21.30;;;11.85;;
38591;SDS011;24356;48.460;11.450;2023-03-01T15:26:24;23.25;;;11.90;;
38591;SDS011;24356;48.460;11.450;2023-03-01T15:28:56;21.95;;;11.68;;
38591;SDS011;24356;48.460;11.450;2023-03-01T15:31:28;23.17;;;11.77;;
38591;SDS011;24356;48.460;11.450;2023-03-01T15:34:10;21.20;;;10.82;;
38591;SDS011;24356;48.460;11.450;2023-03-01T15:36:46;21.98;;;10.90;;
38591;SDS011;24356;48.460;11.450;2023-03-01T15:39:29;19.00;;;10.93;;
38591;SDS011;24356;48.460;11.450;2023-03-01T15:41:55;19.17;;;10.45;;
38591;SDS011;24356;48.460;11.450;2023-03-01T15:44:29;20.58;;;10.48;;
38591;SDS011;24356;48.460;11.450;2023-03-01T15:46:56;20.17;;;10.45;;
38591;SDS011;24356;48.460;11.450;2023-03-01T15:51:57;18.98;;;10.25;;
38591;SDS011;24356;48.460;11.450;2023-03-01T15:54:23;19.83;;;10.27;;
38591;SDS011;24356;48.460;11.450;2023-03-01T15:56:51;19.13;;;10.10;;
38591;SDS011;24356;48.460;11.450;2023-03-01T15:59:16;16.98;;;10.50;;
38591;SDS011;24356;48.460;11.450;2023-03-01T16:01:43;18.42;;;10.60;;
38591;SDS011;24356;48.460;11.450;2023-03-01T16:04:10;17.23;;;10.48;;
38591;SDS011;24356;48.460;11.450;2023-03-01T16:06:52;21.05;;;10.70;;
38591;SDS011;24356;48.460;11.450;2023-03-01T16:09:22;16.60;;;10.15;;
38591;SDS011;24356;48.460;11.450;2023-03-01T16:11:51;21.40;;;10.77;;
38591;SDS011;24356;48.460;11.450;2023-03-01T16:14:17;20.52;;;11.23;;
38591;SDS011;24356;48.460;11.450;2023-03-01T16:16:43;19.70;;;10.90;;
38591;SDS011;24356;48.460;11.450;2023-03-01T16:19:09;23.15;;;11.02;;
38591;SDS011;24356;48.460;11.450;2023-03-01T16:21:35;21.20;;;11.20;;
38591;SDS011;24356;48.460;11.450;2023-03-01T16:24:01;21.85;;;10.73;;
38591;SDS011;24356;48.460;11.450;2023-03-01T16:26:27;19.40;;;10.75;;
38591;SDS011;24356;48.460;11.450;2023-03-01T16:28:56;19.55;;;10.68;;
38591;SDS011;24356;48.460;11.450;2023-03-01T16:31:22;19.88;;;11.88;;
38591;SDS011;24356;48.460;11.450;2023-03-01T16:33:52;23.48;;;11.70;;
38591;SDS011;24356;48.460;11.450;2023-03-01T16:36:18;23.00;;;11.75;;
38591;SDS011;24356;48.460;11.450;2023-03-01T16:38:45;23.73;;;12.00;;
38591;SDS011;24356;48.460;11.450;2023-03-01T16:41:12;25.17;;;13.07;;
38591;SDS011;24356;48.460;11.450;2023-03-01T16:43:40;19.95;;;11.93;;
38591;SDS011;24356;48.460;11.450;2023-03-01T16:46:13;25.15;;;12.73;;